Time;durP1;ratioP1;P1;durP2;ratioP2;P2;SDS_P1;SDS_P2;PMS_P1;PMS_P2;Temp;Humidity;BMP_temperature;BMP_pressure;BME280_temperature;BME280_humidity;BME280_pressure;Samples;Min_cycle;Max_cycle;Signal;HPM_P1;HPM_P2
2021/07/05 05:00:57;;;;;;;3.95;3.72;;;;;;;22.95;56.01;94257.88;5821186;23;20066;-75
2021/07/05 05:03:22;;;;;;;4.10;3.80;;;;;;;22.11;56.61;94255.56;4971826;28;20463;-75
2021/07/05 05:05:48;;;;;;;4.13;3.83;;;;;;;21.76;57.50;94250.13;4972804;28;20438;-74
2021/07/05 05:08:13;;;;;;;4.35;4.10;;;;;;;21.51;59.06;94243.66;4970609;28;20053;-75
2021/07/05 05:10:40;;;;;;;5.78;4.35;;;;;;;23.12;54.33;94239.09;4972655;28;20033;-75
2021/07/05 05:13:06;;;;;;;4.25;3.95;;;;;;;24.27;52.30;94250.47;4955381;28;20030;-75
2021/07/05 05:15:31;;;;;;;4.68;4.28;;;;;;;24.48;52.00;94252.72;4972824;28;20406;-75
2021/07/05 05:17:57;;;;;;;4.07;3.67;;;;;;;26.75;45.90;94246.22;4988361;28;20031;-75
2021/07/05 05:20:22;;;;;;;4.40;4.07;;;;;;;26.54;46.42;94249.16;4972454;28;20034;-75
2021/07/05 05:22:48;;;;;;;4.53;4.15;;;;;;;28.78;42.66;94245.69;4972026;28;20026;-75
2021/07/05 05:25:13;;;;;;;4.90;4.13;;;;;;;27.83;43.11;94240.44;4955392;28;20073;-75
2021/07/05 05:27:39;;;;;;;4.60;4.20;;;;;;;29.42;41.27;94240.16;4989309;28;20058;-75
2021/07/05 05:30:06;;;;;;;6.10;4.22;;;;;;;28.99;41.89;94237.22;4954639;28;20038;-74
2021/07/05 05:32:31;;;;;;;4.68;4.32;;;;;;;28.27;44.09;94243.31;4950549;28;20035;-75
2021/07/05 05:34:57;;;;;;;3.78;3.47;;;;;;;28.20;44.32;94244.78;4951604;28;20043;-74
2021/07/05 05:37:22;;;;;;;4.57;4.15;;;;;;;29.81;40.64;94240.22;4969874;28;20132;-75
2021/07/05 05:39:48;;;;;;;4.35;4.15;;;;;;;28.51;43.95;94240.38;4950636;28;20065;-74
2021/07/05 05:42:13;;;;;;;4.28;3.97;;;;;;;29.50;42.66;94231.44;4931602;28;20035;-74
2021/07/05 05:44:39;;;;;;;4.28;3.97;;;;;;;28.88;42.86;94225.19;4937029;28;20506;-75
2021/07/05 05:47:04;;;;;;;4.35;4.05;;;;;;;29.48;42.91;94242.41;4950452;28;20450;-75
2021/07/05 05:49:30;;;;;;;4.47;4.22;;;;;;;30.73;39.41;94237.31;4952884;28;20436;-75
2021/07/05 05:51:55;;;;;;;4.25;3.92;;;;;;;29.42;41.21;94238.28;4912623;28;20030;-75
2021/07/05 05:54:21;;;;;;;3.92;3.65;;;;;;;31.80;37.51;94242.72;4946872;28;20027;-75
2021/07/05 05:56:52;;;;;;;4.40;4.07;;;;;;;30.40;39.90;94232.75;4944656;28;20064;-75
2021/07/05 05:59:17;;;;;;;4.28;3.97;;;;;;;30.70;39.10;94237.16;4952350;28;20496;-75
2021/07/05 06:01:48;;;;;;;3.65;3.35;;;;;;;31.08;39.06;94235.47;4935542;28;20070;-75
2021/07/05 06:04:13;;;;;;;7.10;3.88;;;;;;;26.01;46.44;94229.09;4951666;28;20029;-75
2021/07/05 06:06:39;;;;;;;5.30;3.72;;;;;;;26.37;48.11;94219.63;4968957;28;20026;-74
2021/07/05 06:09:04;;;;;;;3.85;3.55;;;;;;;30.37;40.36;94222.66;4950758;28;20053;-75
2021/07/05 06:11:30;;;;;;;4.45;4.15;;;;;;;27.33;45.43;94222.69;4936261;28;20038;-74
2021/07/05 06:13:55;;;;;;;4.35;4.00;;;;;;;30.67;38.81;94221.75;4934539;28;20030;-74
2021/07/05 06:16:21;;;;;;;4.47;4.18;;;;;;;29.80;39.73;94223.38;4951854;28;20015;-74
2021/07/05 06:18:46;;;;;;;4.22;3.92;;;;;;;32.59;35.61;94220.63;4951063;28;20038;-74
2021/07/05 06:21:11;;;;;;;4.30;3.90;;;;;;;32.42;36.59;94221.47;4968149;28;20039;-74
2021/07/05 06:23:37;;;;;;;3.35;3.15;;;;;;;30.43;38.77;94219.53;4969394;28;20026;-72
2021/07/05 06:26:04;;;;;;;4.05;3.75;;;;;;;32.70;36.37;94216.41;4950270;28;20018;-71
2021/07/05 06:28:31;;;;;;;4.80;3.88;;;;;;;33.62;35.08;94203.59;4951308;28;20031;-74
2021/07/05 06:30:57;;;;;;;4.18;3.78;;;;;;;32.18;36.40;94213.25;4934315;28;20416;-74
2021/07/05 06:33:23;;;;;;;4.13;3.83;;;;;;;32.06;36.73;94205.13;4936334;28;20022;-71
2021/07/05 06:35:48;;;;;;;4.00;3.70;;;;;;;33.07;34.87;94207.44;4950797;28;20026;-71
2021/07/05 06:38:15;;;;;;;4.30;4.00;;;;;;;34.61;32.36;94206.78;4934315;28;20018;-70
2021/07/05 06:40:40;;;;;;;4.20;3.90;;;;;;;32.18;34.72;94203.31;4951580;28;20034;-73
2021/07/05 06:43:06;;;;;;;4.47;3.95;;;;;;;29.40;40.92;94197.78;4950164;28;20037;-73
2021/07/05 06:45:32;;;;;;;4.57;3.78;;;;;;;27.61;45.43;94206.50;4935679;28;20034;-74
2021/07/05 06:47:57;;;;;;;5.22;4.40;;;;;;;27.82;46.07;94206.09;4949228;28;20034;-74
2021/07/05 06:50:23;;;;;;;4.78;4.22;;;;;;;26.52;48.67;94198.16;4935902;28;20411;-74
2021/07/05 06:52:48;;;;;;;4.57;3.90;;;;;;;26.84;48.17;94201.97;4933740;28;20019;-74
2021/07/05 06:55:14;;;;;;;4.80;4.30;;;;;;;25.99;48.78;94191.44;4968630;28;20033;-73
2021/07/05 06:57:41;;;;;;;7.47;4.60;;;;;;;26.01;48.72;94199.91;4934146;28;20424;-73
2021/07/05 07:00:11;;;;;;;4.80;4.50;;;;;;;33.17;35.90;94195.53;4934621;28;20031;-74
2021/07/05 07:02:37;;;;;;;4.75;4.35;;;;;;;30.42;39.55;94190.44;4935529;28;20051;-75
2021/07/05 07:05:07;;;;;;;4.18;3.88;;;;;;;31.66;38.09;94189.34;4933953;28;20035;-73
2021/07/05 07:07:33;;;;;;;4.38;4.03;;;;;;;27.64;45.43;94195.28;4951404;28;20492;-74
2021/07/05 07:09:59;;;;;;;4.32;4.00;;;;;;;29.91;42.86;94185.75;4967036;28;20029;-73
2021/07/05 07:12:25;;;;;;;4.45;4.07;;;;;;;27.68;46.49;94190.91;4935489;28;20037;-73
2021/07/05 07:14:50;;;;;;;4.22;3.83;;;;;;;27.14;46.38;94185.50;4967996;28;20027;-73
2021/07/05 07:17:39;;;;;;;6.70;4.25;;;;;;;27.48;46.48;94190.53;4918174;28;20030;-74
2021/07/05 07:20:03;;;;;;;4.05;3.75;;;;;;;27.53;46.06;94185.09;4951530;28;20055;-74
2021/07/05 07:22:28;;;;;;;4.65;4.35;;;;;;;27.72;44.85;94180.47;4948215;28;20023;-74
2021/07/05 07:24:53;;;;;;;5.93;4.30;;;;;;;28.18;45.57;94177.69;4962010;28;20078;-73
2021/07/05 07:27:19;;;;;;;4.97;4.28;;;;;;;27.73;46.32;94172.19;4964196;28;20027;-73
2021/07/05 07:29:44;;;;;;;4.53;4.22;;;;;;;27.79;43.67;94182.75;4951017;28;20027;-73
2021/07/05 07:32:10;;;;;;;5.43;3.88;;;;;;;29.02;46.17;94175.25;4949769;28;20766;-73
2021/07/05 07:34:35;;;;;;;4.55;4.15;;;;;;;27.60;46.97;94175.66;4947820;28;20427;-77
2021/07/05 07:37:05;;;;;;;4.00;3.70;;;;;;;26.94;48.12;94183.22;4932495;28;20037;-75
2021/07/05 07:39:38;;;;;;;4.65;4.20;;;;;;;28.27;45.05;94173.22;4965555;28;20515;-74
2021/07/05 07:42:03;;;;;;;4.35;3.97;;;;;;;27.34;47.07;94174.50;4935237;28;20383;-74
2021/07/05 07:44:29;;;;;;;4.95;4.55;;;;;;;26.02;48.89;94174.94;4932853;28;20045;-74
2021/07/05 07:46:54;;;;;;;4.30;4.00;;;;;;;26.74;46.69;94171.00;4950432;28;20030;-73
2021/07/05 07:49:20;;;;;;;4.65;4.25;;;;;;;28.16;44.73;94167.31;4950321;28;20388;-73
2021/07/05 07:51:45;;;;;;;5.43;5.00;;;;;;;26.55;46.64;94165.69;4968086;28;20143;-75
2021/07/05 07:54:11;;;;;;;4.43;4.10;;;;;;;26.17;47.04;94169.44;4935206;28;20035;-76
2021/07/05 07:56:36;;;;;;;4.97;4.38;;;;;;;26.59;47.84;94171.22;4948312;28;20019;-76
2021/07/05 07:59:02;;;;;;;4.80;4.45;;;;;;;27.55;48.54;94169.66;4967654;28;20022;-75
2021/07/05 08:01:28;;;;;;;4.25;3.95;;;;;;;26.95;49.24;94161.63;4933319;28;20269;-75
2021/07/05 08:03:54;;;;;;;4.20;3.80;;;;;;;27.02;49.02;94161.25;4933550;28;20027;-74
2021/07/05 08:06:20;;;;;;;4.88;4.40;;;;;;;27.03;50.78;94162.84;4951585;28;20173;-77
2021/07/05 08:08:48;;;;;;;5.32;4.45;;;;;;;27.32;49.01;94166.06;4952227;28;20106;-75
2021/07/05 08:11:14;;;;;;;6.87;4.53;;;;;;;28.08;48.47;94167.25;4953195;28;20471;-76
2021/07/05 08:13:40;;;;;;;5.18;4.50;;;;;;;27.91;48.02;94161.72;4952345;28;20030;-75
2021/07/05 08:16:05;;;;;;;4.60;4.20;;;;;;;26.66;49.10;94166.34;4952498;28;20726;-76
2021/07/05 08:18:31;;;;;;;5.00;4.60;;;;;;;28.01;47.53;94159.63;4935581;28;20027;-76
2021/07/05 08:20:56;;;;;;;5.95;4.75;;;;;;;28.11;46.93;94156.00;4936529;28;20027;-75
2021/07/05 08:23:22;;;;;;;13.02;5.38;;;;;;;28.10;47.46;94157.88;4936109;28;20117;-78
2021/07/05 08:25:47;;;;;;;5.25;4.85;;;;;;;26.81;50.80;94155.47;4952308;28;20038;-74
2021/07/05 08:28:13;;;;;;;5.43;4.75;;;;;;;25.75;48.04;94148.22;4935691;28;20038;-74
2021/07/05 08:30:38;;;;;;;5.45;5.15;;;;;;;26.22;49.72;94152.66;4952035;28;20045;-76
2021/07/05 08:33:04;;;;;;;28.30;5.95;;;;;;;27.75;48.70;94143.41;4952678;28;20447;-74
2021/07/05 08:35:29;;;;;;;5.28;4.88;;;;;;;27.60;48.62;94151.69;4951590;28;20480;-76
2021/07/05 08:37:55;;;;;;;7.85;4.82;;;;;;;27.35;48.29;94149.50;4936076;28;20031;-76
2021/07/05 08:40:21;;;;;;;6.13;5.05;;;;;;;26.32;46.37;94153.31;4951221;28;20109;-75
2021/07/05 08:42:47;;;;;;;5.15;4.60;;;;;;;27.55;47.28;94159.75;4936520;28;20106;-76
2021/07/05 08:45:13;;;;;;;5.45;4.95;;;;;;;27.39;46.99;94155.78;4935755;28;20030;-78
2021/07/05 08:47:40;;;;;;;8.10;4.57;;;;;;;28.12;47.50;94152.25;4951397;28;20030;-76
2021/07/05 08:50:06;;;;;;;5.93;4.22;;;;;;;28.54;46.81;94149.16;4936120;28;20039;-74
2021/07/05 08:52:38;;;;;;;6.20;4.82;;;;;;;28.30;44.17;94153.97;4919638;28;20035;-79
2021/07/05 08:55:03;;;;;;;4.50;4.13;;;;;;;27.02;47.43;94145.31;4936556;28;20039;-77
2021/07/05 08:57:47;;;;;;;4.50;4.20;;;;;;;28.51;43.83;94148.97;4934842;28;20385;-77
2021/07/05 09:00:15;;;;;;;4.53;4.03;;;;;;;28.79;44.08;94145.13;4940686;28;20042;-76
2021/07/05 09:02:40;;;;;;;7.68;4.15;;;;;;;29.83;42.91;94139.19;4919972;28;20079;-75
2021/07/05 09:05:06;;;;;;;4.25;3.85;;;;;;;29.69;41.49;94136.66;4935499;28;20037;-75
2021/07/05 09:07:32;;;;;;;4.00;3.72;;;;;;;30.50;41.56;94141.53;4935706;28;20058;-76
2021/07/05 09:10:05;;;;;;;4.00;3.70;;;;;;;29.84;43.24;94142.66;4935121;28;20066;-77
2021/07/05 09:12:31;;;;;;;4.25;3.85;;;;;;;28.85;41.52;94143.13;4951960;28;20031;-73
2021/07/05 09:15:23;;;;;;;3.85;3.55;;;;;;;29.39;42.96;94150.03;4935529;28;20030;-74
2021/07/05 09:17:49;;;;;;;4.20;3.83;;;;;;;29.17;44.09;94146.28;4945538;28;20043;-75
2021/07/05 09:20:15;;;;;;;4.45;4.03;;;;;;;28.45;42.91;94142.97;4968676;28;20035;-74
2021/07/05 09:23:09;;;;;;;4.32;4.03;;;;;;;28.36;44.75;94141.31;4950703;28;20102;-73
2021/07/05 09:25:36;;;;;;;4.80;4.43;;;;;;;28.18;45.84;94148.38;4969224;28;20027;-74
2021/07/05 09:28:03;;;;;;;5.68;5.20;;;;;;;26.98;46.67;94139.78;4967189;28;20496;-74
2021/07/05 09:30:41;;;;;;;5.22;4.70;;;;;;;27.77;45.51;94143.88;4946224;28;20030;-73
2021/07/05 09:33:18;;;;;;;5.13;4.15;;;;;;;27.96;43.80;94141.13;4965572;28;20098;-73
2021/07/05 09:35:44;;;;;;;4.22;3.80;;;;;;;27.33;45.24;94129.56;4966743;28;20030;-73
2021/07/05 09:38:09;;;;;;;5.20;4.70;;;;;;;26.93;45.61;94131.09;4934366;28;20029;-73
2021/07/05 09:40:35;;;;;;;4.50;4.10;;;;;;;27.72;45.05;94125.34;4950218;28;20061;-74
2021/07/05 09:43:00;;;;;;;4.20;3.90;;;;;;;28.49;45.33;94114.63;4951378;28;20019;-75
2021/07/05 09:45:31;;;;;;;5.75;3.90;;;;;;;29.28;43.37;94115.59;4950404;28;20034;-76
2021/07/05 09:48:29;;;;;;;5.25;4.20;;;;;;;28.77;45.44;94110.75;4934571;28;20344;-75
2021/07/05 09:51:00;;;;;;;4.80;4.40;;;;;;;28.35;45.54;94107.78;4929699;28;20046;-76
2021/07/05 09:53:35;;;;;;;6.20;4.68;;;;;;;28.82;43.96;94112.53;4950239;28;20050;-75
2021/07/05 09:56:26;;;;;;;7.63;4.28;;;;;;;28.16;43.00;94105.25;4967127;28;20031;-74
2021/07/05 09:58:53;;;;;;;8.90;5.00;;;;;;;27.42;47.67;94101.97;4966027;28;20026;-74
2021/07/05 10:01:38;;;;;;;4.93;4.53;;;;;;;26.91;45.70;94106.66;4930676;29;20115;-76
2021/07/05 10:04:16;;;;;;;6.18;5.22;;;;;;;27.99;47.21;94097.09;4932216;29;20114;-74
2021/07/05 10:06:44;;;;;;;6.97;4.83;;;;;;;27.15;45.45;94094.00;4930647;29;20034;-80
2021/07/05 10:09:10;;;;;;;8.05;4.90;;;;;;;27.02;47.03;94097.44;4915577;29;20034;-77
2021/07/05 10:11:36;;;;;;;4.93;4.53;;;;;;;28.80;44.82;94095.25;4930861;29;20113;-76
2021/07/05 10:14:21;;;;;;;4.53;4.13;;;;;;;29.02;44.29;94101.34;4931257;29;20063;-75
2021/07/05 10:16:49;;;;;;;4.38;3.97;;;;;;;28.85;43.71;94079.91;4947199;29;20544;-74
2021/07/05 10:19:15;;;;;;;5.80;3.80;;;;;;;28.52;43.09;94082.03;4930011;29;20090;-74
2021/07/05 10:21:40;;;;;;;4.93;3.70;;;;;;;27.84;43.41;94079.56;4947094;29;20039;-74
2021/07/05 10:24:06;;;;;;;6.70;4.43;;;;;;;27.81;45.61;94090.81;4914794;29;20390;-76
2021/07/05 10:26:33;;;;;;;6.30;4.25;;;;;;;28.20;46.70;94084.94;4930381;29;20047;-77
2021/07/05 10:28:59;;;;;;;4.75;4.35;;;;;;;27.81;47.34;94077.50;4947017;28;20027;-76
2021/07/05 10:31:26;;;;;;;5.95;4.85;;;;;;;27.53;46.12;94081.31;4930589;29;20790;-77
2021/07/05 10:33:51;;;;;;;5.70;5.00;;;;;;;27.67;48.39;94082.09;4932053;29;20051;-75
2021/07/05 10:36:16;;;;;;;5.40;4.95;;;;;;;27.69;49.38;94079.91;4929834;29;20069;-74
2021/07/05 10:38:49;;;;;;;6.85;4.95;;;;;;;27.75;47.15;94087.50;4946726;29;20497;-74
2021/07/05 10:41:15;;;;;;;7.47;5.00;;;;;;;27.88;48.17;94077.88;4930541;29;20023;-75
2021/07/05 10:43:58;;;;;;;7.18;4.93;;;;;;;28.32;45.71;94069.19;4946723;29;20042;-75
2021/07/05 10:46:46;;;;;;;5.13;4.72;;;;;;;28.86;46.09;94062.81;4915165;29;20082;-75
2021/07/05 10:49:39;;;;;;;7.15;4.82;;;;;;;28.50;46.50;94070.09;4945881;29;20027;-77
2021/07/05 10:52:11;;;;;;;10.25;5.10;;;;;;;29.12;47.07;94073.59;4928545;29;20039;-76
2021/07/05 10:54:51;;;;;;;6.70;4.60;;;;;;;27.02;45.57;94066.31;4930083;29;20039;-80
2021/07/05 10:57:21;;;;;;;7.15;5.00;;;;;;;27.85;47.80;94067.84;4929694;29;20043;-79
2021/07/05 10:59:51;;;;;;;5.85;5.25;;;;;;;28.76;45.83;94071.06;4931093;29;20155;-75
2021/07/05 11:02:41;;;;;;;6.40;4.50;;;;;;;29.03;45.39;94062.09;4945154;29;20070;-81
2021/07/05 11:05:31;;;;;;;6.32;4.38;;;;;;;28.93;43.66;94062.38;4948050;29;20520;-75
2021/07/05 11:08:42;;;;;;;5.47;4.53;;;;;;;28.75;44.21;94050.81;4945584;29;20479;-77
2021/07/05 11:11:10;;;;;;;6.18;3.83;;;;;;;29.12;44.09;94054.94;4915152;29;20050;-77
2021/07/05 11:13:37;;;;;;;4.88;4.18;;;;;;;29.10;44.24;94057.09;4948056;29;20034;-73
2021/07/05 11:16:03;;;;;;;6.20;3.80;;;;;;;29.41;43.48;94047.19;4929929;29;20516;-75
2021/07/05 11:18:37;;;;;;;4.45;4.15;;;;;;;29.26;45.31;94053.75;4929233;29;20059;-76
2021/07/05 11:21:07;;;;;;;6.03;4.47;;;;;;;29.40;43.89;94053.63;4946230;29;20059;-74
2021/07/05 11:24:00;;;;;;;5.75;4.53;;;;;;;29.64;44.78;94047.84;4929874;29;20169;-75
2021/07/05 11:26:46;;;;;;;5.70;4.63;;;;;;;29.94;43.70;94040.84;4944636;29;20053;-75
2021/07/05 11:29:19;;;;;;;4.35;4.03;;;;;;;29.95;42.17;94039.75;4930124;29;20030;-75
2021/07/05 11:31:56;;;;;;;4.40;4.10;;;;;;;29.91;44.60;94033.47;4947626;29;20393;-74
2021/07/05 11:34:28;;;;;;;6.80;4.15;;;;;;;29.80;43.36;94041.75;4946704;29;20035;-75
2021/07/05 11:37:32;;;;;;;4.75;4.35;;;;;;;29.51;44.27;94043.47;4912989;29;20069;-75
2021/07/05 11:39:57;;;;;;;6.82;5.07;;;;;;;29.27;45.17;94033.97;4854780;29;20123;-74
2021/07/05 11:42:32;;;;;;;7.55;4.75;;;;;;;29.30;45.49;94037.91;4903908;29;20047;-74
2021/07/05 11:44:58;;;;;;;4.95;4.47;;;;;;;29.39;42.92;94030.69;4949782;29;20031;-80
2021/07/05 11:47:41;;;;;;;4.50;4.18;;;;;;;29.31;43.35;94020.78;4933450;29;20061;-76
2021/07/05 11:50:22;;;;;;;4.70;4.30;;;;;;;28.88;43.86;94025.16;4950607;29;20396;-80
2021/07/05 11:52:52;;;;;;;5.10;4.70;;;;;;;28.88;46.67;94019.81;4951035;29;20398;-74
2021/07/05 11:55:20;;;;;;;4.85;4.45;;;;;;;30.06;45.77;94028.44;4949862;29;20030;-78
2021/07/05 11:57:46;;;;;;;4.47;4.07;;;;;;;30.33;43.56;94028.13;4932181;29;20027;-78
2021/07/05 12:00:12;;;;;;;4.50;3.97;;;;;;;30.29;43.99;94031.72;4918164;29;20109;-77
2021/07/05 12:02:38;;;;;;;3.80;3.50;;;;;;;30.27;42.93;94028.59;4949229;29;20079;-74
2021/07/05 12:05:08;;;;;;;7.13;4.15;;;;;;;30.40;42.27;94016.97;4933157;29;20074;-75
2021/07/05 12:07:33;;;;;;;7.07;4.38;;;;;;;30.34;40.67;94023.56;4932204;29;20102;-75
2021/07/05 12:09:58;;;;;;;5.70;3.92;;;;;;;30.63;42.27;94023.66;4949391;29;20031;-77
2021/07/05 12:12:24;;;;;;;4.00;3.70;;;;;;;31.00;42.68;94018.69;4933083;29;20529;-78
2021/07/05 12:14:50;;;;;;;4.40;4.00;;;;;;;31.10;41.33;94018.34;4953516;28;20401;-76
2021/07/05 12:17:17;;;;;;;6.47;3.75;;;;;;;30.04;41.61;94019.97;4935229;28;20703;-77
2021/07/05 12:19:43;;;;;;;4.18;3.88;;;;;;;29.80;42.60;94015.03;4951410;28;20029;-72
2021/07/05 12:22:14;;;;;;;4.25;3.90;;;;;;;29.05;44.76;94023.34;4920305;28;20089;-75
2021/07/05 12:24:47;;;;;;;4.05;3.67;;;;;;;28.65;47.04;94027.88;4951794;28;20034;-74
2021/07/05 12:27:17;;;;;;;4.53;4.20;;;;;;;28.45;48.29;94027.59;4936665;28;20039;-73
2021/07/05 12:30:00;;;;;;;4.75;4.28;;;;;;;28.07;48.61;94021.84;4936224;28;20030;-76
2021/07/05 12:32:33;;;;;;;10.45;4.60;;;;;;;27.71;49.70;94022.59;4951801;28;20026;-74
2021/07/05 12:34:59;;;;;;;5.20;4.70;;;;;;;27.92;49.02;94027.50;4933969;29;20114;-75
2021/07/05 12:37:25;;;;;;;4.70;4.30;;;;;;;28.27;49.16;94024.81;4916474;29;20066;-74
2021/07/05 12:40:05;;;;;;;4.63;4.32;;;;;;;28.47;49.11;94020.06;4933903;29;20027;-76
2021/07/05 12:42:32;;;;;;;4.47;4.07;;;;;;;28.02;49.29;94027.25;4933017;29;20519;-75
2021/07/05 12:44:58;;;;;;;5.00;4.60;;;;;;;28.03;49.93;94012.84;4946521;28;20030;-74
2021/07/05 12:47:23;;;;;;;5.57;5.18;;;;;;;28.05;49.20;94035.47;4967918;28;20035;-75
2021/07/05 12:49:50;;;;;;;4.93;4.47;;;;;;;28.77;47.70;94020.09;4934161;28;20086;-74
2021/07/05 12:52:15;;;;;;;5.82;4.00;;;;;;;28.33;46.76;93990.03;4930487;28;20046;-75
2021/07/05 12:54:41;;;;;;;4.50;4.10;;;;;;;27.98;46.82;94016.41;4931471;28;20578;-75
2021/07/05 12:57:16;;;;;;;4.63;4.32;;;;;;;27.81;47.25;94010.16;4968353;28;20033;-76
2021/07/05 13:00:01;;;;;;;4.72;4.10;;;;;;;28.42;46.90;94007.66;4943088;28;20045;-74
2021/07/05 13:02:28;;;;;;;4.60;4.22;;;;;;;28.64;45.46;94004.94;4925882;28;20512;-75
2021/07/05 13:05:13;;;;;;;6.47;3.60;;;;;;;27.99;49.35;94014.53;4924984;28;20141;-74
2021/07/05 13:07:48;;;;;;;8.32;4.45;;;;;;;28.04;49.72;94014.41;4943738;29;20019;-73
2021/07/05 13:10:13;;;;;;;6.45;3.60;;;;;;;28.33;49.96;94020.13;4948529;28;20401;-75
2021/07/05 13:12:51;;;;;;;11.80;4.13;;;;;;;27.84;50.42;94036.22;4935490;28;20034;-75
2021/07/05 13:15:17;;;;;;;3.83;3.63;;;;;;;28.10;52.18;94032.66;4935903;28;20035;-74
2021/07/05 13:17:44;;;;;;;8.38;4.00;;;;;;;27.66;51.25;94030.72;4923396;28;20036;-72
2021/07/05 13:20:15;;;;;;;4.25;3.80;;;;;;;28.06;51.34;94025.59;4950884;28;20405;-72
2021/07/05 13:22:52;;;;;;;5.28;4.00;;;;;;;28.33;49.29;94030.00;4935928;28;20042;-75
2021/07/05 13:25:17;;;;;;;6.03;3.67;;;;;;;28.47;48.85;94033.41;4932680;28;20023;-74
2021/07/05 13:27:43;;;;;;;4.18;3.50;;;;;;;27.98;51.10;94042.25;4933724;28;20037;-75
2021/07/05 13:30:17;;;;;;;8.45;4.13;;;;;;;26.76;53.27;94046.56;4967202;28;20711;-74
2021/07/05 13:33:01;;;;;;;4.85;4.15;;;;;;;25.81;56.29;94048.88;4935198;28;20124;-74
2021/07/05 13:35:29;;;;;;;7.13;4.50;;;;;;;24.76;62.97;94054.34;4950644;28;20111;-73
2021/07/05 13:37:58;;;;;;;13.45;6.32;;;;;;;24.13;70.72;94059.69;4931225;28;20034;-76
2021/07/05 13:40:23;;;;;;;5.03;4.53;;;;;;;24.03;66.77;94055.22;4924065;28;20038;-79
2021/07/05 13:42:52;;;;;;;4.57;4.18;;;;;;;23.83;64.85;94057.22;4928162;28;20035;-75
2021/07/05 13:45:22;;;;;;;4.10;3.73;;;;;;;24.13;65.00;93985.56;4927227;28;20061;-78
2021/07/05 13:48:12;;;;;;;5.30;3.70;;;;;;;25.13;63.03;94057.97;4927842;28;20038;-79
2021/07/05 13:50:42;;;;;;;4.07;3.80;;;;;;;25.52;62.95;94055.13;4947564;28;20110;-77
2021/07/05 13:53:27;;;;;;;3.58;3.38;;;;;;;26.19;60.49;94053.13;4948040;28;20074;-78
2021/07/05 13:56:03;;;;;;;3.80;3.50;;;;;;;25.92;59.13;94043.13;4942321;28;20035;-78
2021/07/05 13:58:33;;;;;;;4.22;3.92;;;;;;;26.04;57.82;94054.09;4935217;28;20111;-77
2021/07/05 14:01:02;;;;;;;3.90;3.60;;;;;;;26.23;57.04;94053.34;4935299;28;20038;-78
2021/07/05 14:03:28;;;;;;;;;;;;;;;26.00;57.94;94061.09;4966898;28;20042;-76
2021/07/05 14:06:01;;;;;;;4.35;4.05;;;;;;;25.55;57.90;94062.50;4951669;28;19924;-75
2021/07/05 14:08:27;;;;;;;4.40;3.90;;;;;;;25.66;60.21;94068.44;4934804;28;20404;-76
2021/07/05 14:10:54;;;;;;;4.53;4.22;;;;;;;25.99;58.57;94064.00;4934958;28;20066;-74
2021/07/05 14:13:23;;;;;;;4.00;3.70;;;;;;;26.35;58.52;94065.06;4934515;28;20035;-75
2021/07/05 14:15:49;;;;;;;4.27;3.50;;;;;;;26.25;58.04;94057.28;4951118;28;20118;-75
2021/07/05 14:18:14;;;;;;;3.92;3.63;;;;;;;26.34;57.09;94063.50;4935038;28;20722;-75
2021/07/05 14:20:40;;;;;;;4.22;3.92;;;;;;;26.65;56.20;94067.22;4950253;28;20117;-74
2021/07/05 14:23:06;;;;;;;3.67;3.38;;;;;;;26.58;53.60;94064.16;4935158;28;20033;-75
2021/07/05 14:25:32;;;;;;;4.55;3.53;;;;;;;26.66;53.72;94065.34;4967976;28;20031;-75
2021/07/05 14:27:58;;;;;;;3.67;3.35;;;;;;;26.76;52.72;94064.38;4950938;28;20030;-75
2021/07/05 14:30:24;;;;;;;4.25;3.88;;;;;;;26.75;53.15;94063.59;4950437;28;20026;-74
2021/07/05 14:35:25;;;;;;;3.97;3.65;;;;;;;27.23;54.25;94069.38;5021861;23;20063;-74
2021/07/05 14:37:51;;;;;;;3.67;3.38;;;;;;;27.22;53.17;94057.97;4933559;29;20043;-75
2021/07/05 14:40:17;;;;;;;4.53;4.13;;;;;;;27.18;52.82;94056.19;4950594;29;20035;-75
2021/07/05 14:42:43;;;;;;;3.67;3.47;;;;;;;27.17;51.38;94051.94;4951436;29;20420;-74
2021/07/05 14:45:10;;;;;;;3.70;3.40;;;;;;;27.05;51.82;94043.66;4949933;29;20027;-74
2021/07/05 14:47:35;;;;;;;4.15;3.85;;;;;;;26.68;53.63;94045.34;4918467;29;20031;-75
2021/07/05 14:50:01;;;;;;;4.20;3.90;;;;;;;26.23;55.05;94032.88;4949797;29;20032;-76
2021/07/05 14:52:26;;;;;;;4.13;3.78;;;;;;;26.12;56.44;94034.88;4934180;29;20493;-75
2021/07/05 14:54:52;;;;;;;5.50;4.00;;;;;;;26.05;56.53;94038.97;4932741;29;20385;-75
2021/07/05 14:57:17;;;;;;;4.25;3.95;;;;;;;26.06;56.18;94051.16;4933856;29;20117;-75
2021/07/05 14:59:43;;;;;;;4.47;4.07;;;;;;;26.28;55.79;94056.69;4950419;29;20034;-74
2021/07/05 15:02:09;;;;;;;4.07;3.78;;;;;;;26.36;56.00;94056.00;4932521;29;20039;-73
2021/07/05 15:04:34;;;;;;;4.40;4.00;;;;;;;26.41;55.92;94058.59;4950259;29;20034;-75
2021/07/05 15:07:00;;;;;;;4.85;4.15;;;;;;;26.59;56.48;94057.75;4949365;29;20039;-75
2021/07/05 15:09:25;;;;;;;4.97;3.78;;;;;;;26.19;57.32;94069.84;4932744;29;20019;-74
2021/07/05 15:11:51;;;;;;;4.05;3.75;;;;;;;26.23;57.50;94056.00;4949996;29;20035;-74
2021/07/05 15:14:16;;;;;;;4.07;3.78;;;;;;;26.25;55.65;94059.94;4932757;29;20028;-75
2021/07/05 15:16:42;;;;;;;4.18;3.88;;;;;;;26.04;57.07;94062.06;4931232;29;20035;-75
2021/07/05 15:19:07;;;;;;;5.82;4.15;;;;;;;25.84;57.43;94067.69;4931062;29;20031;-75
2021/07/05 15:21:33;;;;;;;4.45;4.15;;;;;;;25.65;58.61;94070.31;4914700;29;20505;-74
2021/07/05 15:23:58;;;;;;;4.13;3.72;;;;;;;25.59;58.95;94074.09;4904364;29;20039;-75
2021/07/05 15:26:24;;;;;;;4.35;3.95;;;;;;;25.90;58.57;94082.47;4950789;29;20097;-75
2021/07/05 15:28:49;;;;;;;4.72;4.32;;;;;;;25.87;60.63;94090.22;4932594;29;20034;-77
2021/07/05 15:31:15;;;;;;;6.75;3.95;;;;;;;25.30;60.97;94089.28;4933457;29;20038;-83
2021/07/05 15:33:40;;;;;;;4.95;4.55;;;;;;;24.57;61.03;94068.31;4916301;29;20038;-76
2021/07/05 15:36:06;;;;;;;4.30;4.00;;;;;;;24.73;60.60;94089.34;4901914;29;20063;-82
2021/07/05 15:38:31;;;;;;;4.80;4.40;;;;;;;24.49;60.77;94084.81;4917327;29;20413;-79
2021/07/05 15:40:58;;;;;;;15.88;5.00;;;;;;;24.66;60.82;94087.81;4916963;29;20038;-77
2021/07/05 15:43:23;;;;;;;16.00;5.15;;;;;;;24.96;58.89;94070.88;4950045;29;20110;-78
2021/07/05 15:45:50;;;;;;;11.60;5.10;;;;;;;24.75;60.07;94071.31;4900865;29;20504;-79
2021/07/05 15:48:15;;;;;;;5.50;4.30;;;;;;;25.03;58.31;94071.31;4917616;29;20027;-78
2021/07/05 15:50:41;;;;;;;10.68;4.40;;;;;;;25.05;59.24;94100.19;4932331;29;20051;-78
2021/07/05 15:53:07;;;;;;;4.68;4.30;;;;;;;24.93;59.56;94094.47;4933492;29;20057;-77
2021/07/05 15:55:32;;;;;;;7.88;4.07;;;;;;;24.70;59.92;94097.84;4932821;29;20034;-81
2021/07/05 15:57:58;;;;;;;4.53;4.18;;;;;;;24.63;60.24;94106.13;4917005;29;20113;-77
2021/07/05 16:00:23;;;;;;;6.90;3.90;;;;;;;24.66;60.88;94101.06;4950149;29;20044;-77
2021/07/05 16:02:49;;;;;;;7.55;4.20;;;;;;;24.56;61.11;94095.84;4916843;29;20039;-76
2021/07/05 16:05:15;;;;;;;5.60;3.50;;;;;;;24.60;61.29;94107.47;4917464;29;20035;-78
2021/07/05 16:07:41;;;;;;;6.63;4.13;;;;;;;24.09;63.64;94106.25;4932186;29;20034;-76
2021/07/05 16:10:07;;;;;;;4.82;3.92;;;;;;;24.15;64.21;94113.13;4917568;29;20110;-81
2021/07/05 16:12:32;;;;;;;5.07;4.30;;;;;;;24.20;64.00;94118.41;4916437;29;20579;-78
2021/07/05 16:14:58;;;;;;;4.43;4.03;;;;;;;24.40;63.52;94118.22;4950245;29;20035;-75
2021/07/05 16:17:23;;;;;;;4.93;3.80;;;;;;;24.49;63.77;94121.88;4949699;29;20032;-76
2021/07/05 16:19:49;;;;;;;4.18;3.53;;;;;;;24.68;63.33;94127.28;4947202;29;20039;-76
2021/07/05 16:22:14;;;;;;;4.28;3.88;;;;;;;24.60;63.00;94133.97;4930189;29;20082;-82
2021/07/05 16:24:40;;;;;;;5.97;4.63;;;;;;;24.26;64.97;94127.09;4929977;29;20031;-76
2021/07/05 16:27:05;;;;;;;4.00;3.70;;;;;;;23.93;65.80;94131.22;4949506;28;20027;-76
2021/07/05 16:29:31;;;;;;;4.53;4.13;;;;;;;23.75;66.64;94137.16;4929238;29;20031;-74
2021/07/05 16:31:56;;;;;;;4.13;3.80;;;;;;;23.83;67.02;94134.72;4949174;29;20026;-76
2021/07/05 16:34:21;;;;;;;4.50;4.10;;;;;;;23.87;66.63;94148.19;4947663;28;20603;-76
2021/07/05 16:36:47;;;;;;;4.43;4.10;;;;;;;23.82;67.14;94156.19;4933177;29;20039;-75
2021/07/05 16:39:12;;;;;;;5.25;4.55;;;;;;;23.92;67.57;94156.13;4947491;29;20031;-75
2021/07/05 16:41:38;;;;;;;4.75;4.30;;;;;;;23.83;67.69;94155.88;4931230;29;20078;-75
2021/07/05 16:44:04;;;;;;;5.97;4.30;;;;;;;23.68;67.24;94158.63;4931657;29;20027;-77